KFR22 NZWN-YMML
Flight info
| Callsign | KFR22 |
|---|---|
| Flight time | N/A |
| Altitude | 38000 |
| Route | GOPLU DCT TOMAR DCT TUVBI DCT BOTGU DCT 40S154E DCT GIVID DCT TASIS P753 RAZZI |
| Aircraft | A20N/M-SDE2E3FGHIRWXY/LB1 |
Departure
| Time | 2026-05-03 20:33 |
|---|---|
| Airport | Wellington International Airport (NZWN) |
Arrival
| Time | N/A |
|---|---|
| Airport | Melbourne Airport (YMML) |
| Time | Latitude | Longitude | Altitude | Speed | Heading |
|---|---|---|---|---|---|
| 2026-05-03 20:15 | -41.32755 | 174.81019 | 26 ft | 0 kts | 186° |
| 2026-05-03 20:22 | -41.32741 | 174.81021 | 28 ft | 2 kts | 186° |
| 2026-05-03 20:23 | -41.32727 | 174.81023 | 29 ft | 2 kts | 189° |
| 2026-05-03 20:23 | -41.32712 | 174.81030 | 29 ft | 2 kts | 220° |
| 2026-05-03 20:23 | -41.32703 | 174.81046 | 28 ft | 2 kts | 261° |
| 2026-05-03 20:23 | -41.32703 | 174.81052 | 30 ft | 0 kts | 273° |
| 2026-05-03 20:26 | -41.32702 | 174.81032 | 30 ft | 4 kts | 273° |
| 2026-05-03 20:27 | -41.32700 | 174.80976 | 27 ft | 8 kts | 273° |
| 2026-05-03 20:27 | -41.32705 | 174.80915 | 31 ft | 3 kts | 245° |
| 2026-05-03 20:27 | -41.32717 | 174.80875 | 26 ft | 6 kts | 249° |
| 2026-05-03 20:27 | -41.32750 | 174.80822 | 27 ft | 9 kts | 205° |
| 2026-05-03 20:28 | -41.32819 | 174.80809 | 30 ft | 12 kts | 182° |
| 2026-05-03 20:28 | -41.32911 | 174.80803 | 29 ft | 15 kts | 182° |
| 2026-05-03 20:28 | -41.33027 | 174.80796 | 30 ft | 18 kts | 183° |
| 2026-05-03 20:28 | -41.33165 | 174.80786 | 29 ft | 21 kts | 183° |
| 2026-05-03 20:29 | -41.33322 | 174.80777 | 27 ft | 21 kts | 182° |
| 2026-05-03 20:29 | -41.33467 | 174.80768 | 29 ft | 19 kts | 182° |
| 2026-05-03 20:29 | -41.33564 | 174.80719 | 26 ft | 14 kts | 223° |
| 2026-05-03 20:29 | -41.33579 | 174.80652 | 30 ft | 1 kts | 306° |
| 2026-05-03 20:30 | -41.33567 | 174.80637 | 27 ft | 3 kts | 331° |
| 2026-05-03 20:30 | -41.33546 | 174.80634 | 30 ft | 0 kts | 1° |
| 2026-05-03 20:32 | -41.33281 | 174.80654 | 29 ft | 81 kts | 2° |
| 2026-05-03 20:32 | -41.32474 | 174.80705 | 32 ft | 147 kts | 2° |
| 2026-05-03 20:33 | -41.31347 | 174.80769 | 537 ft | 165 kts | 2° |
| 2026-05-03 20:33 | -41.30167 | 174.80803 | 1391 ft | 174 kts | 2° |
| 2026-05-03 20:33 | -41.28971 | 174.80877 | 2324 ft | 177 kts | 3° |
| 2026-05-03 20:33 | -41.27673 | 174.80991 | 2851 ft | 196 kts | 2° |
| 2026-05-03 20:34 | -41.26255 | 174.81028 | 3499 ft | 209 kts | 351° |
| 2026-05-03 20:34 | -41.25288 | 174.80773 | 3918 ft | 219 kts | 340° |
| 2026-05-03 20:34 | -41.23857 | 174.79960 | 4659 ft | 229 kts | 334° |
| 2026-05-03 20:34 | -41.22288 | 174.79182 | 5190 ft | 253 kts | 340° |
| 2026-05-03 20:35 | -41.20518 | 174.78541 | 5784 ft | 270 kts | 343° |
| 2026-05-03 20:35 | -41.18669 | 174.77915 | 6654 ft | 278 kts | 343° |
| 2026-05-03 20:35 | -41.16790 | 174.77276 | 7511 ft | 284 kts | 343° |
| 2026-05-03 20:35 | -41.14880 | 174.76540 | 8386 ft | 287 kts | 334° |
| 2026-05-03 20:36 | -41.13182 | 174.75166 | 9259 ft | 287 kts | 316° |
| 2026-05-03 20:36 | -41.11813 | 174.73235 | 9765 ft | 289 kts | 307° |
| 2026-05-03 20:36 | -41.10503 | 174.71191 | 9945 ft | 290 kts | 307° |
| 2026-05-03 20:36 | -41.09193 | 174.69149 | 10001 ft | 290 kts | 307° |
| 2026-05-03 20:37 | -41.07874 | 174.67110 | 10002 ft | 290 kts | 308° |
| 2026-05-03 20:37 | -41.06556 | 174.65087 | 10000 ft | 291 kts | 308° |
| 2026-05-03 20:37 | -41.05230 | 174.63061 | 10004 ft | 291 kts | 308° |
| 2026-05-03 20:37 | -41.03907 | 174.61042 | 10002 ft | 290 kts | 308° |
| 2026-05-03 20:38 | -41.02699 | 174.58912 | 10010 ft | 287 kts | 296° |
| 2026-05-03 20:38 | -41.01981 | 174.56472 | 10002 ft | 284 kts | 279° |
| 2026-05-03 20:38 | -41.01800 | 174.53893 | 10007 ft | 280 kts | 265° |
| 2026-05-03 20:38 | -41.01872 | 174.51336 | 10002 ft | 280 kts | 265° |
| 2026-05-03 20:39 | -41.01931 | 174.48766 | 10005 ft | 280 kts | 266° |
| 2026-05-03 20:39 | -41.01982 | 174.46181 | 10001 ft | 280 kts | 266° |
| 2026-05-03 20:39 | -41.02032 | 174.43556 | 9998 ft | 280 kts | 266° |
| 2026-05-03 20:39 | -41.02080 | 174.40968 | 9995 ft | 281 kts | 266° |
| 2026-05-03 20:40 | -41.02127 | 174.38369 | 9999 ft | 281 kts | 266° |
| 2026-05-03 20:40 | -41.02174 | 174.35813 | 10001 ft | 281 kts | 266° |
| 2026-05-03 20:40 | -41.02221 | 174.33221 | 10000 ft | 281 kts | 266° |
| 2026-05-03 20:40 | -41.02267 | 174.30622 | 9996 ft | 281 kts | 266° |
| 2026-05-03 20:41 | -41.02312 | 174.28028 | 9997 ft | 282 kts | 266° |
| 2026-05-03 20:41 | -41.02358 | 174.25432 | 10000 ft | 281 kts | 266° |
| 2026-05-03 20:41 | -41.02402 | 174.22837 | 9997 ft | 282 kts | 266° |
| 2026-05-03 20:41 | -41.02446 | 174.20249 | 10000 ft | 281 kts | 266° |
| 2026-05-03 20:42 | -41.02490 | 174.17648 | 9994 ft | 282 kts | 266° |
| 2026-05-03 20:42 | -41.02532 | 174.15061 | 10000 ft | 281 kts | 266° |
| 2026-05-03 20:42 | -41.02493 | 174.12458 | 10005 ft | 284 kts | 272° |
| 2026-05-03 20:42 | -41.02338 | 174.09793 | 10152 ft | 298 kts | 272° |
| 2026-05-03 20:43 | -41.02185 | 174.06940 | 10450 ft | 323 kts | 272° |
| 2026-05-03 20:43 | -41.02025 | 174.03917 | 11072 ft | 332 kts | 272° |
| 2026-05-03 20:43 | -41.01861 | 174.00883 | 11878 ft | 336 kts | 272° |
| 2026-05-03 20:43 | -41.01691 | 173.97767 | 12668 ft | 341 kts | 273° |
| 2026-05-03 20:44 | -41.01517 | 173.94603 | 13439 ft | 346 kts | 273° |
| 2026-05-03 20:44 | -41.01340 | 173.91403 | 14228 ft | 351 kts | 274° |
| 2026-05-03 20:44 | -41.01160 | 173.88164 | 14932 ft | 355 kts | 274° |
| 2026-05-03 20:44 | -41.00975 | 173.84858 | 15619 ft | 359 kts | 274° |
| 2026-05-03 20:45 | -41.00831 | 173.81537 | 16303 ft | 364 kts | 269° |
| 2026-05-03 20:45 | -41.00995 | 173.78179 | 16960 ft | 368 kts | 262° |
| 2026-05-03 20:45 | -41.01486 | 173.74435 | 17674 ft | 373 kts | 259° |
| 2026-05-03 20:45 | -41.01952 | 173.70897 | 18320 ft | 379 kts | 260° |
| 2026-05-03 20:46 | -41.02402 | 173.67419 | 18934 ft | 384 kts | 260° |
| 2026-05-03 20:46 | -41.02852 | 173.63934 | 19532 ft | 386 kts | 260° |
| 2026-05-03 20:46 | -41.03306 | 173.60404 | 20150 ft | 389 kts | 260° |
| 2026-05-03 20:46 | -41.03763 | 173.56848 | 20737 ft | 392 kts | 260° |
| 2026-05-03 20:47 | -41.04215 | 173.53319 | 21314 ft | 395 kts | 260° |
| 2026-05-03 20:47 | -41.04540 | 173.50780 | 21728 ft | 397 kts | 260° |
| 2026-05-03 20:47 | -41.05154 | 173.45955 | 22485 ft | 401 kts | 260° |
| 2026-05-03 20:47 | -41.05620 | 173.42287 | 23064 ft | 404 kts | 260° |
| 2026-05-03 20:48 | -41.06087 | 173.38599 | 23601 ft | 408 kts | 260° |
| 2026-05-03 20:48 | -41.06399 | 173.36135 | 23974 ft | 410 kts | 260° |
| 2026-05-03 20:48 | -41.06872 | 173.32383 | 24474 ft | 413 kts | 260° |
| 2026-05-03 20:48 | -41.07346 | 173.28614 | 24928 ft | 416 kts | 260° |
| 2026-05-03 20:49 | -41.07875 | 173.24392 | 25431 ft | 419 kts | 260° |
| 2026-05-03 20:49 | -41.08354 | 173.20563 | 25884 ft | 421 kts | 260° |
| 2026-05-03 20:49 | -41.08832 | 173.16723 | 26323 ft | 424 kts | 260° |
| 2026-05-03 20:49 | -41.09307 | 173.12905 | 26741 ft | 427 kts | 260° |
| 2026-05-03 20:50 | -41.09789 | 173.09010 | 27154 ft | 429 kts | 260° |
| 2026-05-03 20:50 | -41.10269 | 173.05125 | 27570 ft | 432 kts | 260° |
| 2026-05-03 20:50 | -41.10755 | 173.01180 | 27961 ft | 435 kts | 260° |
| 2026-05-03 20:50 | -41.11242 | 172.97216 | 28349 ft | 437 kts | 260° |
| 2026-05-03 20:51 | -41.11731 | 172.93215 | 28728 ft | 440 kts | 260° |
| 2026-05-03 20:51 | -41.12222 | 172.89198 | 29088 ft | 442 kts | 260° |
| 2026-05-03 20:51 | -41.12714 | 172.85151 | 29448 ft | 445 kts | 260° |
| 2026-05-03 20:51 | -41.13207 | 172.81088 | 29804 ft | 447 kts | 260° |
| 2026-05-03 20:52 | -41.13702 | 172.77004 | 30138 ft | 449 kts | 260° |
| 2026-05-03 20:52 | -41.14204 | 172.72840 | 30475 ft | 452 kts | 260° |
| 2026-05-03 20:52 | -41.14701 | 172.68711 | 30788 ft | 454 kts | 260° |
| 2026-05-03 20:52 | -41.15199 | 172.64556 | 31088 ft | 456 kts | 260° |
| 2026-05-03 20:53 | -41.15697 | 172.60396 | 31398 ft | 457 kts | 260° |
| 2026-05-03 20:53 | -41.16196 | 172.56212 | 31705 ft | 459 kts | 260° |
| 2026-05-03 20:53 | -41.16693 | 172.52023 | 32074 ft | 458 kts | 260° |
| 2026-05-03 20:53 | -41.17190 | 172.47824 | 32503 ft | 457 kts | 260° |
| 2026-05-03 20:54 | -41.17681 | 172.43656 | 32911 ft | 455 kts | 260° |
| 2026-05-03 20:54 | -41.18656 | 172.35360 | 33700 ft | 453 kts | 260° |
| 2026-05-03 20:54 | -41.19136 | 172.31253 | 34080 ft | 452 kts | 260° |
| 2026-05-03 20:55 | -41.19617 | 172.27131 | 34445 ft | 451 kts | 260° |
| 2026-05-03 20:55 | -41.20094 | 172.23024 | 34777 ft | 449 kts | 260° |
| 2026-05-03 20:55 | -41.20569 | 172.18917 | 35091 ft | 448 kts | 260° |
| 2026-05-03 20:55 | -41.21040 | 172.14837 | 35382 ft | 447 kts | 261° |
| 2026-05-03 20:56 | -41.21509 | 172.10759 | 35673 ft | 445 kts | 261° |
| 2026-05-03 20:56 | -41.21977 | 172.06679 | 35949 ft | 444 kts | 261° |
| 2026-05-03 20:56 | -41.22437 | 172.02660 | 36198 ft | 444 kts | 261° |
| 2026-05-03 20:56 | -41.22899 | 171.98606 | 36460 ft | 443 kts | 261° |
| 2026-05-03 20:57 | -41.23359 | 171.94554 | 36722 ft | 442 kts | 261° |
| 2026-05-03 20:57 | -41.23816 | 171.90519 | 36958 ft | 441 kts | 261° |
| 2026-05-03 20:57 | -41.24271 | 171.86487 | 37189 ft | 440 kts | 261° |
| 2026-05-03 20:57 | -41.24717 | 171.82518 | 37405 ft | 439 kts | 261° |
| 2026-05-03 20:58 | -41.25167 | 171.78508 | 37623 ft | 439 kts | 261° |
| 2026-05-03 20:58 | -41.25617 | 171.74480 | 37841 ft | 438 kts | 261° |
| 2026-05-03 20:58 | -41.26064 | 171.70472 | 38045 ft | 437 kts | 261° |
| 2026-05-03 20:58 | -41.26507 | 171.66479 | 38239 ft | 437 kts | 261° |
| 2026-05-03 20:59 | -41.26950 | 171.62472 | 38434 ft | 436 kts | 261° |
| 2026-05-03 20:59 | -41.27391 | 171.58477 | 38559 ft | 436 kts | 261° |
| 2026-05-03 20:59 | -41.28264 | 171.50521 | 38570 ft | 434 kts | 261° |
| 2026-05-03 21:00 | -41.28841 | 171.45243 | 38572 ft | 435 kts | 261° |
| 2026-05-03 21:00 | -41.29991 | 171.34634 | 38572 ft | 435 kts | 261° |
| 2026-05-03 21:01 | -41.30850 | 171.26662 | 38577 ft | 435 kts | 261° |
| 2026-05-03 21:01 | -41.31697 | 171.18742 | 38565 ft | 435 kts | 261° |
| 2026-05-03 21:02 | -41.32542 | 171.10779 | 38577 ft | 436 kts | 261° |
| 2026-05-03 21:02 | -41.33387 | 171.02771 | 38580 ft | 436 kts | 261° |
| 2026-05-03 21:03 | -41.34221 | 170.94812 | 38587 ft | 437 kts | 261° |
| 2026-05-03 21:03 | -41.34921 | 170.88087 | 38569 ft | 437 kts | 261° |
| 2026-05-03 21:04 | -41.35791 | 170.79672 | 38575 ft | 435 kts | 261° |
| 2026-05-03 21:04 | -41.36612 | 170.71678 | 38576 ft | 435 kts | 261° |
| 2026-05-03 21:05 | -41.37425 | 170.63703 | 38568 ft | 435 kts | 261° |
| 2026-05-03 21:05 | -41.38234 | 170.55716 | 38569 ft | 435 kts | 261° |
| 2026-05-03 21:06 | -41.39038 | 170.47730 | 38566 ft | 435 kts | 261° |
| 2026-05-03 21:06 | -41.39775 | 170.39733 | 38574 ft | 435 kts | 264° |
| 2026-05-03 21:07 | -41.39865 | 170.31662 | 38572 ft | 436 kts | 269° |
| 2026-05-03 21:07 | -41.39818 | 170.23602 | 38572 ft | 435 kts | 269° |
| 2026-05-03 21:08 | -41.39787 | 170.15579 | 38566 ft | 435 kts | 269° |
| 2026-05-03 21:08 | -41.39748 | 170.07502 | 38577 ft | 435 kts | 269° |
| 2026-05-03 21:09 | -41.39702 | 169.99446 | 38577 ft | 435 kts | 269° |
| 2026-05-03 21:09 | -41.39648 | 169.91370 | 38584 ft | 435 kts | 269° |
| 2026-05-03 21:10 | -41.39586 | 169.83308 | 38572 ft | 435 kts | 269° |
| 2026-05-03 21:10 | -41.39517 | 169.75244 | 38575 ft | 435 kts | 269° |
| 2026-05-03 21:11 | -41.39443 | 169.67226 | 38577 ft | 435 kts | 269° |
| 2026-05-03 21:11 | -41.39363 | 169.59150 | 38589 ft | 435 kts | 269° |
| 2026-05-03 21:12 | -41.39278 | 169.51100 | 38591 ft | 435 kts | 269° |
| 2026-05-03 21:12 | -41.39188 | 169.43081 | 38587 ft | 435 kts | 269° |
| 2026-05-03 21:13 | -41.39091 | 169.35016 | 38589 ft | 435 kts | 269° |
| 2026-05-03 21:13 | -41.38989 | 169.26956 | 38587 ft | 435 kts | 269° |
| 2026-05-03 21:14 | -41.38881 | 169.18903 | 38595 ft | 434 kts | 269° |
| 2026-05-03 21:14 | -41.38768 | 169.10857 | 38593 ft | 434 kts | 269° |
| 2026-05-03 21:15 | -41.38650 | 169.02861 | 38574 ft | 434 kts | 269° |
| 2026-05-03 21:15 | -41.38525 | 168.94831 | 38579 ft | 433 kts | 270° |
| 2026-05-03 21:16 | -41.38396 | 168.86814 | 38586 ft | 433 kts | 270° |
| 2026-05-03 21:16 | -41.38260 | 168.78793 | 38571 ft | 433 kts | 270° |
| 2026-05-03 21:17 | -41.38144 | 168.72129 | 38582 ft | 432 kts | 270° |
| 2026-05-03 21:17 | -41.37974 | 168.62803 | 38575 ft | 432 kts | 270° |
| 2026-05-03 21:18 | -41.37823 | 168.54807 | 38571 ft | 432 kts | 270° |
| 2026-05-03 21:18 | -41.37666 | 168.46800 | 38561 ft | 432 kts | 270° |
| 2026-05-03 21:19 | -41.37503 | 168.38814 | 38563 ft | 432 kts | 270° |
| 2026-05-03 21:19 | -41.37335 | 168.30800 | 38576 ft | 432 kts | 270° |
| 2026-05-03 21:20 | -41.37162 | 168.22853 | 38567 ft | 432 kts | 270° |
| 2026-05-03 21:20 | -41.36983 | 168.14856 | 38572 ft | 432 kts | 270° |
| 2026-05-03 21:21 | -41.36799 | 168.06866 | 38572 ft | 432 kts | 270° |
| 2026-05-03 21:21 | -41.36608 | 167.98852 | 38572 ft | 432 kts | 270° |
| 2026-05-03 21:22 | -41.36413 | 167.90908 | 38571 ft | 432 kts | 270° |
| 2026-05-03 21:22 | -41.36212 | 167.82907 | 38572 ft | 432 kts | 270° |
| 2026-05-03 21:23 | -41.36005 | 167.74919 | 38572 ft | 432 kts | 270° |
| 2026-05-03 21:23 | -41.35793 | 167.66918 | 38572 ft | 432 kts | 270° |
| 2026-05-03 21:24 | -41.35574 | 167.58905 | 38566 ft | 432 kts | 271° |
| 2026-05-03 21:24 | -41.35351 | 167.50915 | 38568 ft | 432 kts | 271° |
| 2026-05-03 21:25 | -41.35122 | 167.42920 | 38565 ft | 432 kts | 271° |
| 2026-05-03 21:25 | -41.34887 | 167.34912 | 38565 ft | 432 kts | 271° |
| 2026-05-03 21:26 | -41.34647 | 167.26921 | 38566 ft | 432 kts | 271° |
| 2026-05-03 21:26 | -41.34403 | 167.18978 | 38562 ft | 432 kts | 271° |
| 2026-05-03 21:27 | -41.34152 | 167.10994 | 38558 ft | 431 kts | 271° |
| 2026-05-03 21:27 | -41.33896 | 167.03020 | 38560 ft | 431 kts | 271° |
| 2026-05-03 21:28 | -41.33635 | 166.95051 | 38556 ft | 431 kts | 271° |
| 2026-05-03 21:28 | -41.33368 | 166.87097 | 38549 ft | 431 kts | 271° |
| 2026-05-03 21:29 | -41.33096 | 166.79125 | 38551 ft | 430 kts | 271° |
| 2026-05-03 21:29 | -41.32818 | 166.71169 | 38550 ft | 430 kts | 271° |
| 2026-05-03 21:30 | -41.32536 | 166.63250 | 38546 ft | 430 kts | 271° |
| 2026-05-03 21:30 | -41.32248 | 166.55296 | 38543 ft | 430 kts | 271° |
| 2026-05-03 21:31 | -41.31954 | 166.47345 | 38544 ft | 430 kts | 272° |
| 2026-05-03 21:31 | -41.31655 | 166.39398 | 38545 ft | 430 kts | 272° |
| 2026-05-03 21:32 | -41.31351 | 166.31466 | 38542 ft | 430 kts | 272° |
| 2026-05-03 21:32 | -41.31041 | 166.23526 | 38543 ft | 429 kts | 272° |
| 2026-05-03 21:33 | -41.30728 | 166.15630 | 38539 ft | 429 kts | 272° |
| 2026-05-03 21:33 | -41.30407 | 166.07702 | 38533 ft | 429 kts | 272° |
| 2026-05-03 21:34 | -41.30082 | 165.99775 | 38535 ft | 429 kts | 272° |
| 2026-05-03 21:34 | -41.29750 | 165.91843 | 38532 ft | 429 kts | 272° |
| 2026-05-03 21:35 | -41.29413 | 165.83907 | 38528 ft | 430 kts | 272° |
| 2026-05-03 21:35 | -41.29071 | 165.75968 | 38527 ft | 430 kts | 272° |
| 2026-05-03 21:36 | -41.28723 | 165.68030 | 38526 ft | 430 kts | 272° |
| 2026-05-03 21:36 | -41.28371 | 165.60143 | 38528 ft | 430 kts | 272° |
| 2026-05-03 21:37 | -41.28013 | 165.52216 | 38528 ft | 430 kts | 272° |
| 2026-05-03 21:37 | -41.27649 | 165.44283 | 38524 ft | 430 kts | 272° |
| 2026-05-03 21:38 | -41.27278 | 165.36338 | 38522 ft | 430 kts | 273° |
| 2026-05-03 21:38 | -41.26903 | 165.28411 | 38521 ft | 430 kts | 273° |
| 2026-05-03 21:39 | -41.26525 | 165.20527 | 38513 ft | 430 kts | 273° |
| 2026-05-03 21:39 | -41.26139 | 165.12597 | 38515 ft | 429 kts | 273° |
| 2026-05-03 21:40 | -41.25813 | 165.06002 | 38515 ft | 429 kts | 273° |
| 2026-05-03 21:40 | -41.25417 | 164.98073 | 38513 ft | 429 kts | 273° |
| 2026-05-03 21:41 | -41.25017 | 164.90167 | 38508 ft | 429 kts | 273° |
| 2026-05-03 21:41 | -41.24611 | 164.82268 | 38509 ft | 429 kts | 273° |
| 2026-05-03 21:42 | -41.24199 | 164.74350 | 38507 ft | 429 kts | 273° |
| 2026-05-03 21:42 | -41.23785 | 164.66490 | 38498 ft | 428 kts | 273° |
| 2026-05-03 21:43 | -41.23363 | 164.58586 | 38496 ft | 428 kts | 273° |
| 2026-05-03 21:43 | -41.22936 | 164.50690 | 38496 ft | 428 kts | 274° |
| 2026-05-03 21:44 | -41.22506 | 164.42850 | 38493 ft | 428 kts | 274° |
| 2026-05-03 21:44 | -41.22069 | 164.34967 | 38491 ft | 428 kts | 274° |
| 2026-05-03 21:45 | -41.21626 | 164.27080 | 38487 ft | 428 kts | 274° |
| 2026-05-03 21:45 | -41.21180 | 164.19227 | 38483 ft | 427 kts | 274° |
| 2026-05-03 21:46 | -41.20726 | 164.11346 | 38483 ft | 427 kts | 274° |
| 2026-05-03 21:46 | -41.20561 | 164.08498 | 38482 ft | 427 kts | 274° |